createdAt,value
2022-10-05T00:01:57.702Z,12.13
2022-10-05T00:04:11.227Z,12.15
2022-10-05T00:06:14.023Z,12.13
2022-10-05T00:08:22.329Z,12.09
2022-10-05T00:10:25.878Z,12.08
2022-10-05T00:12:29.759Z,12.10
2022-10-05T00:14:36.029Z,12.10
2022-10-05T00:16:38.833Z,12.10
2022-10-05T00:18:41.882Z,12.09
2022-10-05T00:20:45.950Z,12.06
2022-10-05T00:22:49.003Z,12.03
2022-10-05T00:25:01.036Z,12.04
2022-10-05T00:27:15.605Z,12.02
2022-10-05T00:29:22.615Z,11.99
2022-10-05T00:31:27.329Z,11.97
2022-10-05T00:33:30.151Z,11.99
2022-10-05T00:35:36.314Z,11.98
2022-10-05T00:37:39.515Z,11.96
2022-10-05T00:39:43.910Z,11.95
2022-10-05T00:42:04.730Z,11.96
2022-10-05T00:44:25.193Z,11.94
2022-10-05T00:46:36.852Z,11.91
2022-10-05T00:48:47.024Z,11.88
2022-10-05T00:51:18.227Z,11.88
2022-10-05T00:53:34.022Z,11.86
2022-10-05T00:55:47.969Z,11.83
2022-10-05T00:58:07.263Z,11.84
2022-10-05T01:00:13.486Z,11.81
2022-10-05T01:02:22.520Z,11.91
2022-10-05T01:04:29.974Z,11.88
2022-10-05T01:06:40.996Z,11.84
2022-10-05T01:08:55.608Z,11.86
2022-10-05T01:11:06.879Z,11.78
2022-10-05T01:13:19.667Z,11.92
2022-10-05T01:15:32.405Z,11.80
2022-10-05T01:17:41.993Z,11.80
2022-10-05T01:20:07.617Z,11.78
2022-10-05T01:22:25.483Z,11.80
2022-10-05T01:24:45.032Z,11.87
2022-10-05T01:27:08.389Z,11.87
2022-10-05T01:29:19.585Z,11.82
2022-10-05T01:31:27.181Z,11.81
2022-10-05T01:33:36.166Z,11.80
2022-10-05T01:35:47.604Z,11.81
2022-10-05T01:38:05.087Z,11.78
2022-10-05T01:40:13.539Z,11.73
2022-10-05T01:42:24.465Z,11.75
2022-10-05T01:44:33.568Z,11.76
2022-10-05T01:46:43.017Z,11.79
2022-10-05T01:48:56.823Z,11.84
2022-10-05T01:51:11.685Z,11.80
2022-10-05T01:53:25.764Z,11.81
2022-10-05T01:55:35.908Z,11.76
2022-10-05T01:57:51.418Z,11.76
2022-10-05T02:00:05.476Z,11.77
2022-10-05T02:02:20.597Z,11.71
2022-10-05T02:05:00.308Z,11.71
2022-10-05T02:06:54.887Z,11.70
2022-10-05T02:09:05.484Z,11.73
2022-10-05T02:11:10.440Z,11.67
2022-10-05T02:13:18.183Z,11.79
2022-10-05T02:15:26.750Z,11.70
2022-10-05T02:17:36.294Z,11.67
2022-10-05T02:19:42.480Z,11.63
2022-10-05T02:21:49.358Z,11.59
2022-10-05T02:23:56.758Z,11.60
2022-10-05T02:26:01.912Z,11.56
2022-10-05T02:28:11.782Z,11.58
2022-10-05T02:30:18.372Z,11.56
2022-10-05T02:32:30.614Z,11.55
2022-10-05T02:34:38.472Z,11.56
2022-10-05T02:36:54.474Z,11.53
2022-10-05T02:39:06.222Z,11.54
2022-10-05T02:41:19.432Z,11.58
2022-10-05T02:43:31.909Z,11.60
2022-10-05T02:45:44.164Z,11.62
2022-10-05T02:47:56.171Z,11.58
2022-10-05T02:50:04.141Z,11.62
2022-10-05T02:52:13.575Z,11.53
2022-10-05T02:54:28.329Z,11.59
2022-10-05T02:56:41.936Z,11.52
2022-10-05T02:58:51.800Z,11.51
2022-10-05T03:01:01.082Z,11.52
2022-10-05T03:03:11.332Z,11.51
2022-10-05T03:05:22.142Z,11.48
2022-10-05T03:07:31.289Z,11.54
2022-10-05T03:09:42.245Z,11.58
2022-10-05T03:11:51.276Z,11.56
2022-10-05T03:14:02.766Z,11.47
2022-10-05T03:16:21.713Z,11.55
2022-10-05T03:18:39.527Z,11.46
2022-10-05T03:20:49.796Z,11.50
2022-10-05T03:22:58.151Z,11.45
2022-10-05T03:25:32.143Z,11.42
2022-10-05T03:27:44.391Z,11.39
2022-10-05T03:29:53.484Z,11.41
2022-10-05T03:32:06.863Z,11.42
2022-10-05T03:34:18.071Z,11.53
2022-10-05T03:36:27.485Z,11.48
2022-10-05T03:38:38.861Z,11.47
2022-10-05T03:40:47.841Z,11.37
2022-10-05T03:43:06.730Z,11.38
2022-10-05T03:45:19.109Z,11.44
2022-10-05T03:47:29.834Z,11.37
2022-10-05T03:49:48.936Z,11.36
2022-10-05T03:51:56.693Z,11.43
2022-10-05T03:54:06.734Z,11.40
2022-10-05T03:56:16.297Z,11.33
2022-10-05T03:58:25.281Z,11.38
2022-10-05T04:00:29.399Z,11.40
2022-10-05T04:02:43.089Z,11.41
2022-10-05T04:04:53.771Z,11.40
2022-10-05T04:06:58.796Z,11.35
2022-10-05T04:09:06.652Z,11.33
2022-10-05T04:11:15.434Z,11.33
2022-10-05T04:13:24.608Z,11.33
2022-10-05T04:15:34.663Z,11.33
2022-10-05T04:17:43.256Z,11.32
2022-10-05T04:19:57.722Z,11.32
2022-10-05T04:22:09.021Z,11.38
2022-10-05T04:24:18.462Z,11.28
2022-10-05T04:26:35.053Z,11.31
2022-10-05T04:28:46.783Z,11.37
2022-10-05T04:30:54.056Z,11.34
2022-10-05T04:33:00.127Z,11.40
2022-10-05T04:35:34.500Z,11.29
2022-10-05T04:37:48.130Z,11.26
2022-10-05T04:40:05.153Z,11.15
2022-10-05T04:42:16.820Z,11.10
2022-10-05T04:44:37.905Z,11.16
2022-10-05T04:46:58.321Z,11.16
2022-10-05T04:49:26.225Z,11.22
2022-10-05T04:51:38.925Z,11.26
2022-10-05T04:53:50.585Z,11.21
2022-10-05T04:55:59.507Z,11.22
2022-10-05T04:58:10.624Z,11.26
2022-10-05T05:00:23.381Z,11.21
2022-10-05T05:02:39.736Z,11.18
2022-10-05T05:05:15.367Z,11.18
2022-10-05T05:07:37.312Z,11.20
2022-10-05T05:10:02.417Z,11.14
2022-10-05T05:12:19.194Z,11.16
2022-10-05T05:14:42.244Z,11.20
2022-10-05T05:16:50.526Z,11.12
2022-10-05T05:19:18.923Z,11.12
2022-10-05T05:21:34.107Z,11.11
2022-10-05T05:23:45.325Z,11.06
2022-10-05T05:25:58.356Z,11.07
2022-10-05T05:28:16.705Z,11.07
2022-10-05T05:30:23.030Z,11.06
2022-10-05T05:32:39.959Z,11.07
2022-10-05T05:34:57.469Z,11.15
2022-10-05T05:37:05.545Z,11.08
2022-10-05T05:39:25.388Z,11.08
2022-10-05T05:41:37.010Z,11.12
2022-10-05T05:44:00.397Z,11.14
2022-10-05T05:46:11.918Z,11.17
2022-10-05T05:48:20.973Z,11.13
2022-10-05T05:50:42.857Z,11.13
2022-10-05T05:52:51.044Z,11.11
2022-10-05T05:54:59.214Z,11.15
2022-10-05T05:57:11.733Z,11.16
2022-10-05T05:59:23.197Z,11.05
2022-10-05T06:01:33.589Z,11.05
2022-10-05T06:03:47.776Z,11.10
2022-10-05T06:05:54.914Z,11.24
2022-10-05T06:08:02.217Z,11.23
2022-10-05T06:10:30.392Z,11.11
2022-10-05T06:12:46.913Z,11.05
2022-10-05T06:14:54.321Z,11.10
2022-10-05T06:17:04.221Z,11.06
2022-10-05T06:19:13.197Z,11.06
2022-10-05T06:21:23.709Z,11.03
2022-10-05T06:23:34.276Z,11.03
2022-10-05T06:25:52.156Z,11.04
2022-10-05T06:28:03.565Z,11.11
2022-10-05T06:30:13.023Z,11.18
2022-10-05T06:32:28.057Z,11.21
2022-10-05T06:34:54.636Z,11.25
2022-10-05T06:37:01.289Z,11.35
2022-10-05T06:39:32.796Z,11.35
2022-10-05T06:41:50.373Z,11.35
2022-10-05T06:43:59.633Z,11.40
2022-10-05T06:46:30.982Z,11.49
2022-10-05T06:49:13.797Z,11.39
2022-10-05T06:51:51.978Z,11.50
2022-10-05T06:54:15.004Z,11.44
2022-10-05T06:56:26.645Z,11.43
2022-10-05T06:58:45.957Z,11.57
2022-10-05T07:00:54.072Z,11.43
2022-10-05T07:03:04.670Z,11.45
2022-10-05T07:05:38.919Z,11.49
2022-10-05T07:07:52.350Z,11.57
2022-10-05T07:10:09.709Z,11.33
2022-10-05T07:12:45.068Z,11.39
2022-10-05T07:15:02.247Z,11.34
2022-10-05T07:17:21.045Z,11.39
2022-10-05T07:19:35.428Z,11.38
2022-10-05T07:21:45.908Z,11.28
2022-10-05T07:23:57.961Z,11.32
2022-10-05T07:26:07.106Z,11.27
2022-10-05T07:28:18.794Z,11.27
2022-10-05T07:30:23.824Z,11.24
2022-10-05T07:32:34.649Z,11.34
2022-10-05T07:34:48.916Z,11.33
2022-10-05T07:37:13.982Z,11.34
2022-10-05T07:39:36.748Z,11.38
2022-10-05T07:41:54.587Z,11.47
2022-10-05T07:44:08.885Z,11.56
2022-10-05T07:46:22.189Z,11.72
2022-10-05T07:48:33.177Z,11.82
2022-10-05T07:50:45.129Z,11.76
2022-10-05T07:52:54.984Z,11.70
2022-10-05T07:55:06.356Z,11.95
2022-10-05T07:57:21.992Z,11.88
2022-10-05T07:59:35.571Z,11.84
2022-10-05T08:01:44.989Z,11.93
2022-10-05T08:03:54.062Z,11.87
2022-10-05T08:06:05.196Z,11.78
2022-10-05T08:08:19.636Z,11.94
2022-10-05T08:10:27.785Z,11.99
2022-10-05T08:12:35.654Z,12.18
2022-10-05T08:14:45.830Z,12.28
2022-10-05T08:16:53.323Z,12.47
2022-10-05T08:19:00.671Z,12.61
2022-10-05T08:21:11.735Z,12.66
2022-10-05T08:23:22.411Z,12.77
2022-10-05T08:25:27.986Z,12.80
2022-10-05T08:27:39.988Z,12.80
2022-10-05T08:29:51.341Z,12.92
2022-10-05T08:32:01.505Z,13.03
2022-10-05T08:34:20.120Z,13.14
2022-10-05T08:36:28.209Z,13.31
2022-10-05T08:38:33.767Z,13.56
2022-10-05T08:41:09.398Z,13.54
2022-10-05T08:43:30.654Z,13.55
2022-10-05T08:46:11.594Z,13.62
2022-10-05T08:48:43.600Z,13.69
2022-10-05T08:51:10.374Z,13.79
2022-10-05T08:53:25.030Z,13.92
2022-10-05T08:55:38.824Z,14.03
2022-10-05T08:58:14.170Z,14.09
2022-10-05T09:00:20.317Z,14.11
2022-10-05T09:02:33.243Z,14.15
2022-10-05T09:04:53.468Z,14.13
2022-10-05T09:07:10.786Z,14.23
2022-10-05T09:09:42.117Z,14.36
2022-10-05T09:11:55.033Z,14.35
2022-10-05T09:14:15.368Z,14.35
2022-10-05T09:16:39.690Z,14.44
2022-10-05T09:19:17.571Z,14.45
2022-10-05T09:21:35.208Z,14.57
2022-10-05T09:23:40.616Z,14.66
2022-10-05T09:25:58.703Z,14.74
2022-10-05T09:28:18.877Z,14.88
2022-10-05T09:30:27.901Z,14.99
2022-10-05T09:33:04.709Z,15.08
2022-10-05T09:35:22.516Z,15.27
2022-10-05T09:37:57.711Z,15.32
2022-10-05T09:40:41.494Z,15.43
2022-10-05T09:43:15.893Z,15.44
2022-10-05T09:45:43.585Z,15.40
2022-10-05T09:48:13.774Z,15.59
2022-10-05T09:50:48.625Z,15.65
2022-10-05T09:53:14.594Z,15.68
2022-10-05T09:55:52.196Z,15.73
2022-10-05T09:58:31.262Z,15.82
2022-10-05T10:00:55.668Z,15.94
2022-10-05T10:03:42.944Z,15.99
2022-10-05T10:06:28.709Z,16.27
2022-10-05T10:08:44.342Z,16.34
2022-10-05T10:11:01.281Z,16.49
2022-10-05T10:13:25.351Z,16.55
2022-10-05T10:16:04.629Z,16.43
2022-10-05T10:18:52.221Z,16.50
2022-10-05T10:21:21.646Z,16.64
2022-10-05T10:23:54.755Z,16.73
2022-10-05T10:26:16.226Z,16.91
2022-10-05T10:28:50.583Z,17.02
2022-10-05T10:31:06.938Z,17.17
2022-10-05T10:33:43.611Z,17.28
2022-10-05T10:35:55.541Z,17.38
2022-10-05T10:38:17.635Z,17.30
2022-10-05T10:40:30.318Z,17.24
2022-10-05T10:42:42.815Z,17.45
2022-10-05T10:45:01.965Z,17.54
2022-10-05T10:47:39.848Z,17.51
2022-10-05T10:50:08.804Z,17.70
2022-10-05T10:52:28.295Z,17.76
2022-10-05T10:54:53.814Z,17.86
2022-10-05T10:57:06.218Z,17.92
2022-10-05T10:59:32.847Z,18.02
2022-10-05T11:01:39.668Z,18.14
2022-10-05T11:04:20.077Z,18.24
2022-10-05T11:06:34.374Z,18.23
2022-10-05T11:09:04.173Z,18.27
2022-10-05T11:11:23.262Z,18.21
2022-10-05T11:13:45.666Z,18.24
2022-10-05T11:16:31.825Z,18.35
2022-10-05T11:18:52.619Z,18.31
2022-10-05T11:21:18.288Z,18.45
2022-10-05T11:23:39.021Z,18.53
2022-10-05T11:26:10.434Z,18.60
2022-10-05T11:28:46.432Z,18.77
2022-10-05T11:31:10.094Z,18.77
2022-10-05T11:33:49.250Z,18.87
2022-10-05T11:36:18.278Z,19.10
2022-10-05T11:38:50.182Z,19.05
2022-10-05T11:41:25.082Z,19.04
2022-10-05T11:44:12.735Z,18.98
2022-10-05T11:46:20.741Z,19.00
2022-10-05T11:48:35.005Z,19.01
2022-10-05T11:50:45.422Z,19.11
2022-10-05T11:52:52.682Z,19.06
2022-10-05T11:55:14.700Z,19.12
2022-10-05T11:57:21.410Z,19.21
2022-10-05T11:59:35.432Z,19.22
2022-10-05T12:01:45.739Z,19.21
2022-10-05T12:04:00.620Z,19.31
2022-10-05T12:06:21.850Z,19.18
2022-10-05T12:08:35.649Z,19.34
2022-10-05T12:10:46.565Z,19.35
2022-10-05T12:13:11.847Z,19.37
2022-10-05T12:15:23.395Z,19.46
2022-10-05T12:17:35.841Z,19.53
2022-10-05T12:19:42.035Z,19.67
2022-10-05T12:21:53.006Z,19.59
2022-10-05T12:24:00.124Z,19.46
2022-10-05T12:26:06.090Z,19.48
2022-10-05T12:28:13.768Z,19.57
2022-10-05T12:30:26.205Z,19.74
2022-10-05T12:32:36.996Z,19.66
2022-10-05T12:34:52.887Z,19.70
2022-10-05T12:37:04.033Z,19.66
2022-10-05T12:39:16.854Z,19.87
2022-10-05T12:41:26.322Z,19.82
2022-10-05T12:43:36.511Z,19.99
2022-10-05T12:45:56.017Z,19.85
2022-10-05T12:48:25.074Z,19.91
2022-10-05T12:50:31.537Z,19.99
2022-10-05T12:52:48.940Z,20.20
2022-10-05T12:55:02.679Z,20.26
2022-10-05T12:57:15.432Z,20.31
2022-10-05T12:59:29.493Z,20.22
2022-10-05T13:01:42.010Z,20.23
2022-10-05T13:03:52.922Z,20.30
2022-10-05T13:06:09.776Z,20.39
2022-10-05T13:08:23.493Z,20.50
2022-10-05T13:10:34.204Z,20.61
2022-10-05T13:12:48.911Z,20.55
2022-10-05T13:15:00.900Z,20.61
2022-10-05T13:17:11.145Z,20.66
2022-10-05T13:19:28.622Z,20.69
2022-10-05T13:21:49.648Z,20.67
2022-10-05T13:23:59.770Z,20.73
2022-10-05T13:26:07.751Z,20.72
2022-10-05T13:28:16.816Z,20.77
2022-10-05T13:30:21.739Z,20.86
2022-10-05T13:32:28.220Z,20.88
2022-10-05T13:34:38.498Z,20.95
2022-10-05T13:36:52.025Z,20.84
2022-10-05T13:39:03.695Z,20.88
2022-10-05T13:41:12.646Z,21.07
2022-10-05T13:43:23.882Z,21.01
2022-10-05T13:45:32.674Z,20.93
2022-10-05T13:47:44.888Z,20.99
2022-10-05T13:49:53.637Z,21.04
2022-10-05T13:52:01.307Z,21.06
2022-10-05T13:54:11.556Z,20.99
2022-10-05T13:56:20.274Z,20.95
2022-10-05T13:58:33.966Z,20.98
2022-10-05T14:00:46.378Z,20.94
2022-10-05T14:02:53.121Z,20.88
2022-10-05T14:05:00.850Z,20.91
2022-10-05T14:07:22.377Z,21.01
2022-10-05T14:09:30.912Z,20.98
2022-10-05T14:11:36.046Z,20.96
2022-10-05T14:13:47.515Z,21.01
2022-10-05T14:16:04.643Z,21.05
2022-10-05T14:18:24.215Z,21.10
2022-10-05T14:20:30.980Z,21.07
2022-10-05T14:22:42.701Z,21.03
2022-10-05T14:24:52.403Z,21.06
2022-10-05T14:26:57.318Z,21.05
2022-10-05T14:29:02.597Z,21.08
2022-10-05T14:31:15.445Z,21.04
2022-10-05T14:33:30.422Z,21.03
2022-10-05T14:35:48.834Z,21.13
2022-10-05T14:37:57.058Z,21.00
2022-10-05T14:40:03.719Z,20.97
2022-10-05T14:42:15.911Z,20.92
2022-10-05T14:44:29.620Z,20.95
2022-10-05T14:46:33.933Z,21.00
2022-10-05T14:48:43.602Z,20.95
2022-10-05T14:50:55.484Z,20.93
2022-10-05T14:53:09.795Z,20.97
2022-10-05T14:55:31.128Z,20.96
2022-10-05T14:57:41.983Z,20.96
2022-10-05T15:00:10.316Z,20.93
2022-10-05T15:02:38.789Z,20.95
2022-10-05T15:04:49.867Z,20.87
2022-10-05T15:07:05.218Z,20.87
2022-10-05T15:09:26.055Z,20.91
2022-10-05T15:11:40.301Z,20.95
2022-10-05T15:13:46.175Z,20.91
2022-10-05T15:15:54.555Z,21.02
2022-10-05T15:18:01.990Z,20.92
2022-10-05T15:20:18.805Z,20.89
2022-10-05T15:22:31.641Z,20.93
2022-10-05T15:24:43.699Z,21.01
2022-10-05T15:26:51.485Z,20.92
2022-10-05T15:29:01.081Z,20.89
2022-10-05T15:31:06.610Z,20.92
2022-10-05T15:33:16.797Z,20.88
2022-10-05T15:35:36.905Z,20.87
2022-10-05T15:37:44.590Z,20.86
2022-10-05T15:39:53.455Z,21.05
2022-10-05T15:42:00.736Z,20.82
2022-10-05T15:44:09.957Z,20.87
2022-10-05T15:46:16.421Z,20.85
2022-10-05T15:48:22.873Z,20.82
2022-10-05T15:50:32.217Z,20.83
2022-10-05T15:52:41.662Z,20.83
2022-10-05T15:55:19.393Z,20.72
2022-10-05T15:57:26.537Z,20.68
2022-10-05T15:59:37.430Z,20.75
2022-10-05T16:01:48.126Z,20.64
2022-10-05T16:03:55.325Z,20.68
2022-10-05T16:06:24.656Z,20.63
2022-10-05T16:08:58.540Z,20.57
2022-10-05T16:11:03.646Z,20.58
2022-10-05T16:13:20.035Z,20.51
2022-10-05T16:15:29.157Z,20.43
2022-10-05T16:17:47.941Z,20.42
2022-10-05T16:20:04.073Z,20.42
2022-10-05T16:22:21.619Z,20.37
2022-10-05T16:24:49.226Z,20.27
2022-10-05T16:26:59.073Z,20.23
2022-10-05T16:29:09.584Z,20.25
2022-10-05T16:31:18.696Z,20.19
2022-10-05T16:33:29.136Z,20.08
2022-10-05T16:35:44.442Z,20.05
2022-10-05T16:37:58.392Z,19.97
2022-10-05T16:40:04.215Z,19.93
2022-10-05T16:42:17.285Z,19.92
2022-10-05T16:44:33.533Z,19.92
2022-10-05T16:46:45.177Z,19.85
2022-10-05T16:48:56.271Z,19.84
2022-10-05T16:51:24.008Z,19.80
2022-10-05T16:53:31.815Z,19.75
2022-10-05T16:55:38.572Z,19.70
2022-10-05T16:57:45.093Z,19.63
2022-10-05T17:00:03.794Z,19.59
2022-10-05T17:02:15.122Z,19.49
2022-10-05T17:04:31.751Z,19.39
2022-10-05T17:06:54.915Z,19.28
2022-10-05T17:09:16.984Z,19.17
2022-10-05T17:11:34.631Z,19.09
2022-10-05T17:13:55.055Z,18.98
2022-10-05T17:16:11.000Z,18.88
2022-10-05T17:18:29.255Z,18.84
2022-10-05T17:20:44.600Z,18.76
2022-10-05T17:22:52.778Z,18.68
2022-10-05T17:25:04.580Z,18.63
2022-10-05T17:27:19.934Z,18.59
2022-10-05T17:29:47.554Z,18.57
2022-10-05T17:32:10.655Z,18.46
2022-10-05T17:34:29.134Z,18.39
2022-10-05T17:36:43.731Z,18.43
2022-10-05T17:38:49.688Z,18.43
2022-10-05T17:41:19.735Z,18.47
2022-10-05T17:43:25.496Z,18.43
2022-10-05T17:45:58.296Z,18.43
2022-10-05T17:48:04.091Z,18.43
2022-10-05T17:50:42.048Z,18.43
2022-10-05T17:53:03.958Z,18.46
2022-10-05T17:55:39.291Z,18.46
2022-10-05T17:57:43.456Z,18.58
2022-10-05T17:59:49.359Z,18.68
2022-10-05T18:02:16.749Z,18.76
2022-10-05T18:04:42.211Z,18.81
2022-10-05T18:06:47.973Z,18.73
2022-10-05T18:08:51.272Z,18.82
2022-10-05T18:11:17.131Z,18.87
2022-10-05T18:13:35.870Z,18.96
2022-10-05T18:15:45.697Z,19.02
2022-10-05T18:17:51.370Z,18.96
2022-10-05T18:20:13.223Z,19.07
2022-10-05T18:22:30.278Z,19.06
2022-10-05T18:25:03.432Z,19.08
2022-10-05T18:27:28.635Z,19.00
2022-10-05T18:30:05.357Z,19.01
2022-10-05T18:32:20.206Z,18.99
2022-10-05T18:34:32.203Z,18.98
2022-10-05T18:36:51.184Z,19.05
2022-10-05T18:39:03.977Z,19.04
2022-10-05T18:41:14.365Z,18.99
2022-10-05T18:43:30.035Z,19.09
2022-10-05T18:45:48.022Z,19.06
2022-10-05T18:48:01.544Z,19.07
2022-10-05T18:50:16.623Z,19.04
2022-10-05T18:52:28.254Z,19.01
2022-10-05T18:54:54.691Z,18.98
2022-10-05T18:56:57.470Z,19.02
2022-10-05T18:59:15.023Z,19.07
2022-10-05T19:01:34.999Z,19.03
2022-10-05T19:03:51.109Z,19.00
2022-10-05T19:06:06.586Z,18.94
2022-10-05T19:08:21.670Z,18.90
2022-10-05T19:10:32.512Z,18.89
2022-10-05T19:12:46.279Z,18.96
2022-10-05T19:14:59.332Z,18.89
2022-10-05T19:17:25.063Z,18.92
2022-10-05T19:19:49.238Z,18.88
2022-10-05T19:22:00.058Z,18.90
2022-10-05T19:24:19.779Z,18.90
2022-10-05T19:26:39.193Z,18.86
2022-10-05T19:28:50.871Z,18.90
2022-10-05T19:31:07.958Z,18.81
2022-10-05T19:33:29.300Z,18.82
2022-10-05T19:35:39.306Z,18.77
2022-10-05T19:37:57.699Z,18.73
2022-10-05T19:40:09.738Z,18.74
2022-10-05T19:42:31.015Z,18.80
2022-10-05T19:44:52.275Z,18.79
2022-10-05T19:47:01.021Z,18.84
2022-10-05T19:49:09.563Z,18.79
2022-10-05T19:51:15.863Z,18.80
2022-10-05T19:53:25.959Z,18.87
2022-10-05T19:55:35.361Z,18.86
2022-10-05T19:57:47.434Z,18.84
2022-10-05T19:59:50.360Z,18.82
2022-10-05T20:01:55.555Z,18.81
2022-10-05T20:03:59.054Z,18.82
2022-10-05T20:06:05.150Z,18.77
2022-10-05T20:08:12.401Z,18.71
2022-10-05T20:10:28.924Z,18.85
2022-10-05T20:12:51.472Z,18.77
2022-10-05T20:15:26.118Z,18.76
2022-10-05T20:17:47.388Z,18.82
2022-10-05T20:20:12.896Z,18.82
2022-10-05T20:22:30.607Z,18.65
2022-10-05T20:24:50.789Z,18.76
2022-10-05T20:27:16.183Z,18.71
2022-10-05T20:29:19.105Z,18.74
2022-10-05T20:31:22.410Z,18.81
2022-10-05T20:33:26.480Z,18.76
2022-10-05T20:35:30.621Z,18.76
2022-10-05T20:37:36.653Z,18.76
2022-10-05T20:39:40.205Z,18.80
2022-10-05T20:41:43.288Z,18.79
2022-10-05T20:43:46.129Z,18.79
2022-10-05T20:45:48.889Z,18.72
2022-10-05T20:47:51.713Z,18.67
2022-10-05T20:49:55.271Z,18.67
2022-10-05T20:51:58.980Z,18.59
2022-10-05T20:54:03.037Z,18.52
2022-10-05T20:56:06.271Z,18.47
2022-10-05T20:58:11.023Z,18.52
2022-10-05T21:00:14.786Z,18.48
2022-10-05T21:02:18.816Z,18.57
2022-10-05T21:04:23.169Z,18.55
2022-10-05T21:06:27.995Z,18.47
2022-10-05T21:08:31.141Z,18.43
2022-10-05T21:10:36.835Z,18.40
2022-10-05T21:12:39.565Z,18.27
2022-10-05T21:14:42.391Z,18.29
2022-10-05T21:16:45.885Z,18.27
2022-10-05T21:18:50.077Z,18.28
2022-10-05T21:20:53.056Z,18.24
2022-10-05T21:22:55.782Z,18.24
2022-10-05T21:24:58.521Z,18.26
2022-10-05T21:27:02.881Z,18.29
2022-10-05T21:29:11.516Z,18.20
2022-10-05T21:31:15.258Z,18.17
2022-10-05T21:33:18.023Z,18.23
2022-10-05T21:35:20.838Z,18.21
2022-10-05T21:37:23.701Z,18.19
2022-10-05T21:39:26.889Z,18.22
2022-10-05T21:41:29.597Z,18.28
2022-10-05T21:43:33.691Z,18.27
2022-10-05T21:45:36.533Z,18.24
2022-10-05T21:47:39.374Z,18.28
2022-10-05T21:49:42.573Z,18.24
2022-10-05T21:51:46.083Z,18.29
2022-10-05T21:53:52.814Z,18.29
2022-10-05T21:55:57.709Z,18.33
2022-10-05T21:58:04.158Z,18.25
2022-10-05T22:00:10.862Z,18.19
2022-10-05T22:02:13.593Z,18.25
2022-10-05T22:04:16.566Z,18.24
2022-10-05T22:06:19.301Z,18.25
2022-10-05T22:08:24.990Z,18.22
2022-10-05T22:10:28.909Z,18.24
2022-10-05T22:12:32.081Z,18.24
2022-10-05T22:14:34.836Z,18.26
2022-10-05T22:16:40.374Z,18.26
2022-10-05T22:18:43.682Z,18.23
2022-10-05T22:20:47.107Z,18.21
2022-10-05T22:22:50.176Z,18.23
2022-10-05T22:24:53.656Z,18.18
2022-10-05T22:26:56.410Z,18.13
2022-10-05T22:28:59.153Z,18.12
2022-10-05T22:31:05.136Z,18.07
2022-10-05T22:33:09.716Z,18.08
2022-10-05T22:35:12.295Z,17.91
2022-10-05T22:37:15.532Z,17.91
2022-10-05T22:39:18.719Z,17.93
2022-10-05T22:41:21.590Z,17.89
2022-10-05T22:43:26.892Z,17.88
2022-10-05T22:45:32.572Z,17.85
2022-10-05T22:47:35.959Z,17.81
2022-10-05T22:49:40.109Z,17.82
2022-10-05T22:51:42.985Z,17.80
2022-10-05T22:53:45.735Z,17.78
2022-10-05T22:55:48.494Z,17.78
2022-10-05T22:57:51.417Z,17.74
2022-10-05T22:59:54.150Z,17.71
2022-10-05T23:01:56.971Z,17.68
2022-10-05T23:03:59.813Z,17.68
2022-10-05T23:06:08.166Z,17.64
2022-10-05T23:08:10.924Z,17.63
2022-10-05T23:10:16.307Z,17.70
2022-10-05T23:12:19.041Z,17.62
2022-10-05T23:14:23.041Z,17.55
2022-10-05T23:16:29.147Z,17.51
2022-10-05T23:18:33.318Z,17.44
2022-10-05T23:20:36.960Z,17.40
2022-10-05T23:22:41.075Z,17.46
2022-10-05T23:24:43.857Z,17.45
2022-10-05T23:26:46.584Z,17.50
2022-10-05T23:28:50.237Z,17.51
2022-10-05T23:30:53.125Z,17.43
2022-10-05T23:32:55.917Z,17.39
2022-10-05T23:34:58.664Z,17.40
2022-10-05T23:37:01.487Z,17.38
2022-10-05T23:39:05.634Z,17.35
2022-10-05T23:41:08.860Z,17.27
2022-10-05T23:43:11.625Z,17.25
2022-10-05T23:45:15.463Z,17.23
2022-10-05T23:47:18.290Z,17.24
2022-10-05T23:49:21.018Z,17.25
2022-10-05T23:51:23.774Z,17.22
2022-10-05T23:53:26.728Z,17.18
2022-10-05T23:55:31.068Z,17.18
2022-10-05T23:57:33.881Z,17.14
2022-10-05T23:59:36.786Z,17.08
